Terminal Aerodrome Forecast
Issued by NWS

Home | Current Version | Previous Version | Text Only | Print | Product List | Glossary On
Versions: 1 2 3 4 5 6 7 8 9 10 11 12
000
FTUS45 KRIW 231720
TAFJAC
TAF
KJAC 231720Z 2318/2418 19008KT P6SM SCT060 BKN090
     FM232100 22014KT P6SM VCTS SCT040 BKN070CB
     FM240100 23010KT 6SM -SHRA SCT020 BKN035 BKN150
     FM240500 20007KT P6SM VCSH BKN040
     FM241500 20008KT P6SM VCSH SCT015 BKN025
      AMD LTD TO CLD VIS AND WIND=

USA.gov is the U.S. government's official web portal to all federal, state and local government web resources and services.